createdAt,value
2018-12-18T00:02:18.246Z,3.10
2018-12-18T00:04:46.534Z,3.10
2018-12-18T00:07:14.758Z,3.10
2018-12-18T00:09:43.011Z,3.10
2018-12-18T00:12:11.323Z,3.10
2018-12-18T00:14:39.636Z,3.30
2018-12-18T00:17:07.892Z,3.40
2018-12-18T00:19:36.147Z,3.40
2018-12-18T00:22:05.036Z,3.30
2018-12-18T00:24:33.215Z,3.40
2018-12-18T00:27:01.564Z,3.50
2018-12-18T00:29:29.935Z,3.50
2018-12-18T00:31:58.139Z,3.50
2018-12-18T00:34:26.418Z,3.50
2018-12-18T00:36:54.676Z,3.70
2018-12-18T00:39:22.892Z,3.90
2018-12-18T00:41:53.042Z,4.10
2018-12-18T00:44:21.247Z,4.00
2018-12-18T00:46:49.412Z,3.90
2018-12-18T00:49:17.643Z,3.80
2018-12-18T00:51:45.889Z,3.60
2018-12-18T00:54:14.172Z,3.50
2018-12-18T00:56:42.437Z,3.50
2018-12-18T00:59:10.696Z,3.50
2018-12-18T01:01:38.866Z,3.60
2018-12-18T01:04:07.190Z,3.70
2018-12-18T01:06:35.332Z,3.80
2018-12-18T01:09:04.722Z,3.80
2018-12-18T01:11:33.021Z,3.90
2018-12-18T01:14:01.333Z,4.00
2018-12-18T01:16:29.693Z,4.10
2018-12-18T01:18:57.940Z,4.10
2018-12-18T01:21:26.317Z,4.10
2018-12-18T01:23:54.487Z,4.20
2018-12-18T01:26:22.720Z,4.20
2018-12-18T01:28:50.925Z,4.30
2018-12-18T01:31:19.091Z,4.40
2018-12-18T01:33:47.381Z,4.40
2018-12-18T01:36:15.599Z,4.40
2018-12-18T01:38:43.758Z,4.60
2018-12-18T01:41:11.954Z,4.70
2018-12-18T01:43:40.216Z,4.80
2018-12-18T01:46:08.517Z,4.90
2018-12-18T01:48:36.737Z,4.90
2018-12-18T01:51:04.957Z,4.80
2018-12-18T01:53:33.179Z,4.90
2018-12-18T01:56:01.364Z,4.90
2018-12-18T01:58:29.919Z,5.00
2018-12-18T02:00:58.032Z,5.00
2018-12-18T02:03:26.230Z,5.00
2018-12-18T02:05:54.629Z,5.10
2018-12-18T02:08:22.772Z,5.10
2018-12-18T02:10:50.945Z,5.10
2018-12-18T02:13:19.264Z,5.10
2018-12-18T02:15:47.535Z,5.10
2018-12-18T02:18:15.735Z,5.10
2018-12-18T02:20:43.973Z,5.10
2018-12-18T02:23:12.211Z,5.20
2018-12-18T02:25:40.400Z,5.30
2018-12-18T02:28:08.639Z,5.30
2018-12-18T02:30:36.838Z,5.30
2018-12-18T02:33:05.079Z,5.20
2018-12-18T02:35:33.188Z,5.20
2018-12-18T02:38:01.403Z,5.30
2018-12-18T02:40:29.668Z,5.30
2018-12-18T02:42:57.934Z,5.30
2018-12-18T02:45:26.265Z,5.30
2018-12-18T02:47:54.459Z,5.30
2018-12-18T02:50:22.656Z,5.40
2018-12-18T02:52:50.986Z,5.40
2018-12-18T02:55:19.344Z,5.40
2018-12-18T02:57:47.731Z,5.40
2018-12-18T03:00:16.110Z,5.40
2018-12-18T03:02:44.407Z,5.50
2018-12-18T03:05:12.763Z,5.50
2018-12-18T03:07:41.102Z,5.50
2018-12-18T03:10:09.380Z,5.50
2018-12-18T03:12:37.895Z,5.60
2018-12-18T03:15:06.392Z,5.50
2018-12-18T03:17:34.712Z,5.40
2018-12-18T03:20:03.107Z,5.40
2018-12-18T03:22:31.540Z,5.50
2018-12-18T03:24:59.975Z,5.40
2018-12-18T03:27:28.328Z,5.40
2018-12-18T03:29:56.655Z,5.40
2018-12-18T03:32:29.214Z,5.30
2018-12-18T03:34:58.642Z,5.30
2018-12-18T03:37:26.944Z,5.00
2018-12-18T03:39:55.134Z,4.70
2018-12-18T03:42:23.488Z,4.40
2018-12-18T03:44:51.750Z,4.20
2018-12-18T03:47:20.046Z,4.10
2018-12-18T03:49:48.342Z,4.00
2018-12-18T03:52:16.631Z,4.00
2018-12-18T03:54:44.824Z,4.10
2018-12-18T03:57:13.143Z,4.00
2018-12-18T03:59:41.837Z,4.00
2018-12-18T04:02:10.488Z,4.00
2018-12-18T04:04:38.756Z,4.00
2018-12-18T04:07:06.994Z,3.90
2018-12-18T04:09:35.198Z,3.90
2018-12-18T04:12:11.471Z,3.90
2018-12-18T04:14:39.883Z,3.80
2018-12-18T04:17:08.152Z,3.80
2018-12-18T04:19:36.538Z,3.80
2018-12-18T04:22:05.350Z,3.70
2018-12-18T04:24:33.544Z,3.70
2018-12-18T04:27:01.818Z,3.80
2018-12-18T04:29:31.046Z,3.80
2018-12-18T04:31:59.300Z,3.80
2018-12-18T04:34:27.484Z,3.80
2018-12-18T04:36:55.716Z,3.80
2018-12-18T04:39:24.856Z,3.80
2018-12-18T04:41:53.018Z,3.90
2018-12-18T04:44:21.153Z,3.90
2018-12-18T04:46:49.416Z,3.80
2018-12-18T04:49:17.645Z,3.80
2018-12-18T04:51:45.831Z,3.80
2018-12-18T04:54:13.942Z,3.90
2018-12-18T04:56:42.159Z,3.90
2018-12-18T04:59:10.370Z,3.90
2018-12-18T05:01:38.618Z,4.00
2018-12-18T05:04:06.890Z,4.00
2018-12-18T05:06:35.114Z,4.00
2018-12-18T05:09:04.905Z,3.90
2018-12-18T05:11:33.152Z,3.90
2018-12-18T05:14:01.456Z,3.90
2018-12-18T05:16:29.740Z,3.90
2018-12-18T05:18:58.016Z,3.90
2018-12-18T05:21:26.303Z,3.90
2018-12-18T05:23:54.436Z,3.90
2018-12-18T05:26:22.708Z,3.90
2018-12-18T05:28:50.989Z,3.90
2018-12-18T05:31:19.259Z,4.00
2018-12-18T05:33:47.461Z,4.00
2018-12-18T05:36:15.665Z,4.00
2018-12-18T05:38:43.812Z,4.00
2018-12-18T05:41:11.946Z,4.00
2018-12-18T05:43:40.175Z,4.00
2018-12-18T05:46:08.323Z,4.00
2018-12-18T05:48:36.562Z,4.00
2018-12-18T05:51:04.859Z,4.00
2018-12-18T05:53:32.984Z,3.90
2018-12-18T05:56:01.279Z,3.90
2018-12-18T05:58:29.487Z,3.90
2018-12-18T06:00:58.091Z,3.90
2018-12-18T06:03:26.376Z,3.90
2018-12-18T06:05:54.620Z,3.90
2018-12-18T06:08:22.832Z,3.90
2018-12-18T06:10:51.133Z,3.90
2018-12-18T06:13:19.354Z,3.90
2018-12-18T06:15:47.493Z,4.00
2018-12-18T06:18:15.695Z,4.10
2018-12-18T06:20:43.979Z,4.00
2018-12-18T06:23:12.177Z,4.00
2018-12-18T06:25:40.459Z,4.00
2018-12-18T06:28:08.711Z,4.10
2018-12-18T06:30:36.986Z,4.20
2018-12-18T06:33:05.211Z,4.30
2018-12-18T06:35:33.544Z,4.50
2018-12-18T06:38:01.819Z,4.40
2018-12-18T06:40:30.272Z,4.40
2018-12-18T06:42:58.468Z,4.50
2018-12-18T06:45:26.671Z,4.70
2018-12-18T06:47:54.931Z,4.90
2018-12-18T06:50:23.228Z,4.80
2018-12-18T06:52:51.448Z,5.00
2018-12-18T06:55:19.711Z,5.10
2018-12-18T06:57:47.954Z,5.30
2018-12-18T07:00:16.251Z,5.30
2018-12-18T07:02:44.421Z,5.40
2018-12-18T07:05:16.714Z,5.40
2018-12-18T07:07:42.928Z,5.40
2018-12-18T07:10:11.170Z,5.40
2018-12-18T07:12:39.387Z,5.50
2018-12-18T07:15:07.656Z,5.50
2018-12-18T07:17:35.926Z,5.60
2018-12-18T07:20:04.607Z,5.60
2018-12-18T07:22:32.858Z,5.60
2018-12-18T07:25:01.106Z,5.60
2018-12-18T07:27:29.445Z,5.60
2018-12-18T07:29:57.689Z,5.50
2018-12-18T07:32:25.854Z,5.50
2018-12-18T07:34:54.156Z,5.50
2018-12-18T07:37:22.373Z,5.50
2018-12-18T07:39:50.617Z,5.60
2018-12-18T07:42:18.833Z,5.60
2018-12-18T07:44:47.112Z,5.60
2018-12-18T07:47:15.255Z,5.30
2018-12-18T07:49:43.438Z,5.20
2018-12-18T07:52:11.664Z,5.00
2018-12-18T07:54:39.802Z,4.90
2018-12-18T07:57:08.072Z,5.00
2018-12-18T07:59:36.275Z,5.00
2018-12-18T08:02:04.491Z,5.00
2018-12-18T08:04:32.802Z,4.90
2018-12-18T08:07:01.165Z,4.90
2018-12-18T08:09:29.459Z,5.00
2018-12-18T08:11:57.767Z,4.90
2018-12-18T08:14:26.096Z,5.00
2018-12-18T08:16:54.295Z,5.10
2018-12-18T08:19:22.540Z,5.10
2018-12-18T08:21:50.829Z,5.20
2018-12-18T08:24:19.416Z,5.30
2018-12-18T08:26:47.667Z,5.30
2018-12-18T08:29:15.812Z,5.50
2018-12-18T08:31:43.940Z,5.50
2018-12-18T08:34:12.231Z,5.40
2018-12-18T08:36:40.379Z,5.50
2018-12-18T08:39:09.472Z,5.50
2018-12-18T08:41:37.778Z,5.50
2018-12-18T08:44:06.035Z,5.60
2018-12-18T08:46:34.309Z,5.70
2018-12-18T08:49:02.537Z,5.80
2018-12-18T08:51:30.928Z,5.80
2018-12-18T08:53:59.165Z,5.80
2018-12-18T08:56:27.384Z,5.90
2018-12-18T08:58:55.603Z,5.90
2018-12-18T09:01:23.843Z,6.00
2018-12-18T09:03:52.059Z,6.10
2018-12-18T09:06:20.281Z,6.20
2018-12-18T09:08:48.467Z,6.20
2018-12-18T09:11:16.666Z,6.20
2018-12-18T09:13:44.795Z,6.20
2018-12-18T09:16:18.420Z,6.20
2018-12-18T09:18:46.597Z,6.10
2018-12-18T09:21:14.846Z,6.10
2018-12-18T09:23:43.104Z,6.10
2018-12-18T09:26:11.318Z,6.00
2018-12-18T09:28:39.573Z,6.00
2018-12-18T09:31:07.925Z,6.00
2018-12-18T09:33:36.173Z,5.70
2018-12-18T09:36:04.411Z,5.60
2018-12-18T09:38:37.984Z,5.50
2018-12-18T09:41:11.771Z,5.50
2018-12-18T09:43:45.430Z,5.60
2018-12-18T09:46:13.672Z,5.60
2018-12-18T09:48:41.908Z,5.60
2018-12-18T09:51:10.091Z,5.70
2018-12-18T09:53:38.373Z,5.70
2018-12-18T09:56:06.540Z,5.70
2018-12-18T09:58:34.783Z,5.70
2018-12-18T10:01:03.035Z,5.70
2018-12-18T10:03:33.669Z,5.90
2018-12-18T10:06:01.680Z,6.10
2018-12-18T10:08:29.851Z,6.10
2018-12-18T10:10:58.154Z,6.10
2018-12-18T10:13:26.383Z,6.10
2018-12-18T10:15:54.630Z,6.10
2018-12-18T10:18:22.889Z,6.20
2018-12-18T10:20:51.114Z,6.20
2018-12-18T10:23:19.336Z,6.20
2018-12-18T10:25:47.526Z,6.40
2018-12-18T10:28:15.749Z,6.40
2018-12-18T10:30:43.916Z,6.40
2018-12-18T10:33:12.185Z,6.50
2018-12-18T10:35:40.378Z,6.60
2018-12-18T10:38:08.672Z,6.70
2018-12-18T10:40:36.851Z,6.80
2018-12-18T10:43:05.066Z,6.90
2018-12-18T10:45:34.586Z,7.10
2018-12-18T10:48:02.881Z,7.00
2018-12-18T10:50:31.178Z,7.00
2018-12-18T10:52:59.461Z,7.00
2018-12-18T10:55:27.707Z,7.10
2018-12-18T10:57:55.909Z,7.20
2018-12-18T11:00:29.576Z,7.20
2018-12-18T11:02:57.843Z,7.20
2018-12-18T11:05:26.007Z,7.20
2018-12-18T11:07:54.201Z,7.10
2018-12-18T11:10:22.443Z,7.10
2018-12-18T11:12:56.087Z,7.10
2018-12-18T11:15:24.332Z,7.10
2018-12-18T11:17:52.523Z,7.20
2018-12-18T11:20:20.619Z,7.30
2018-12-18T11:22:48.816Z,7.20
2018-12-18T11:25:17.071Z,7.20
2018-12-18T11:27:45.371Z,6.90
2018-12-18T11:30:13.593Z,7.00
2018-12-18T11:32:41.817Z,7.00
2018-12-18T11:35:10.104Z,7.10
2018-12-18T11:37:38.396Z,7.10
2018-12-18T11:40:07.183Z,7.00
2018-12-18T11:42:35.371Z,6.90
2018-12-18T11:45:03.605Z,7.00
2018-12-18T11:47:31.977Z,7.10
2018-12-18T11:50:00.277Z,7.20
2018-12-18T11:52:28.488Z,7.10
2018-12-18T11:54:56.585Z,7.10
2018-12-18T11:57:24.922Z,7.20
2018-12-18T11:59:53.113Z,7.10
2018-12-18T12:02:21.355Z,6.90
2018-12-18T12:04:49.676Z,6.80
2018-12-18T12:07:17.903Z,6.70
2018-12-18T12:09:46.039Z,6.70
2018-12-18T12:12:14.206Z,6.80
2018-12-18T12:14:42.696Z,6.90
2018-12-18T12:17:11.000Z,6.90
2018-12-18T12:19:39.190Z,7.20
2018-12-18T12:22:07.402Z,7.10
2018-12-18T12:24:35.631Z,7.10
2018-12-18T12:27:09.187Z,7.00
2018-12-18T12:29:37.367Z,7.20
2018-12-18T12:32:05.688Z,7.00
2018-12-18T12:34:33.892Z,7.00
2018-12-18T12:37:02.237Z,6.90
2018-12-18T12:39:30.699Z,6.90
2018-12-18T12:41:58.898Z,7.00
2018-12-18T12:44:27.111Z,7.20
2018-12-18T12:46:55.368Z,7.50
2018-12-18T12:49:27.891Z,7.90
2018-12-18T12:51:57.533Z,8.10
2018-12-18T12:54:25.788Z,8.50
2018-12-18T12:56:54.215Z,8.90
2018-12-18T12:59:22.481Z,9.60
2018-12-18T13:01:50.758Z,9.90
2018-12-18T13:04:18.954Z,9.80
2018-12-18T13:06:47.231Z,10.20
2018-12-18T13:09:16.152Z,9.60
2018-12-18T13:11:44.425Z,9.30
2018-12-18T13:14:12.674Z,8.80
2018-12-18T13:16:40.922Z,9.60
2018-12-18T13:19:09.193Z,9.20
2018-12-18T13:21:37.415Z,9.20
2018-12-18T13:24:05.669Z,9.30
2018-12-18T13:26:33.925Z,8.80
2018-12-18T13:29:02.160Z,8.20
2018-12-18T13:31:30.579Z,7.80
2018-12-18T13:33:58.770Z,7.50
2018-12-18T13:36:27.033Z,7.40
2018-12-18T13:38:55.228Z,7.20
2018-12-18T13:41:23.504Z,6.90
2018-12-18T13:43:51.683Z,7.00
2018-12-18T13:46:19.959Z,7.20
2018-12-18T13:48:48.246Z,7.40
2018-12-18T13:51:16.530Z,7.20
2018-12-18T13:53:44.748Z,7.10
2018-12-18T13:56:13.030Z,7.10
2018-12-18T13:58:41.105Z,7.00
2018-12-18T14:01:09.377Z,6.90
2018-12-18T14:03:37.602Z,6.80
2018-12-18T14:06:05.812Z,6.80
2018-12-18T14:08:33.991Z,6.80
2018-12-18T14:11:02.312Z,6.60
2018-12-18T14:13:30.754Z,6.30
2018-12-18T14:15:59.036Z,6.20
2018-12-18T14:18:27.294Z,6.10
2018-12-18T14:20:55.598Z,5.90
2018-12-18T14:23:23.732Z,5.90
2018-12-18T14:25:52.048Z,5.80
2018-12-18T14:28:20.252Z,5.70
2018-12-18T14:30:48.483Z,5.70
2018-12-18T14:33:16.651Z,5.60
2018-12-18T14:35:44.870Z,5.40
2018-12-18T14:38:13.191Z,5.40
2018-12-18T14:40:41.423Z,5.20
2018-12-18T14:43:09.748Z,5.00
2018-12-18T14:45:37.970Z,5.00
2018-12-18T14:48:06.408Z,4.90
2018-12-18T14:50:34.734Z,4.80
2018-12-18T14:53:03.069Z,4.60
2018-12-18T14:55:31.492Z,4.60
2018-12-18T14:57:59.823Z,4.10
2018-12-18T15:00:28.112Z,4.40
2018-12-18T15:02:56.312Z,4.20
2018-12-18T15:05:24.682Z,4.20
2018-12-18T15:07:52.773Z,4.00
2018-12-18T15:10:21.130Z,3.90
2018-12-18T15:12:49.454Z,3.80
2018-12-18T15:15:18.449Z,3.80
2018-12-18T15:17:46.757Z,3.60
2018-12-18T15:20:15.269Z,3.60
2018-12-18T15:22:43.617Z,3.50
2018-12-18T15:25:11.883Z,3.50
2018-12-18T15:27:40.149Z,3.40
2018-12-18T15:30:09.541Z,3.30
2018-12-18T15:32:38.051Z,3.20
2018-12-18T15:35:06.425Z,3.10
2018-12-18T15:37:34.933Z,3.00
2018-12-18T15:40:06.025Z,3.00
2018-12-18T15:42:34.912Z,2.90
2018-12-18T15:45:03.291Z,2.80
2018-12-18T15:47:32.422Z,2.70
2018-12-18T15:50:00.770Z,2.60
2018-12-18T15:52:29.219Z,2.50
2018-12-18T15:54:57.341Z,2.50
2018-12-18T15:57:25.617Z,2.40
2018-12-18T15:59:53.956Z,2.30
2018-12-18T16:02:24.369Z,2.30
2018-12-18T16:04:53.084Z,2.20
2018-12-18T16:07:21.454Z,2.20
2018-12-18T16:09:49.765Z,2.20
2018-12-18T16:12:18.134Z,2.10
2018-12-18T16:14:46.530Z,2.20
2018-12-18T16:17:14.770Z,2.10
2018-12-18T16:19:43.045Z,2.10
2018-12-18T16:22:11.318Z,2.10
2018-12-18T16:24:39.582Z,2.00
2018-12-18T16:27:07.939Z,2.00
2018-12-18T16:29:36.201Z,2.00
2018-12-18T16:32:04.432Z,2.00
2018-12-18T16:34:32.758Z,1.90
2018-12-18T16:37:01.143Z,1.90
2018-12-18T16:39:29.606Z,1.80
2018-12-18T16:41:58.377Z,1.90
2018-12-18T16:44:26.734Z,1.90
2018-12-18T16:46:54.970Z,1.80
2018-12-18T16:49:23.399Z,1.80
2018-12-18T16:51:51.627Z,1.80
2018-12-18T16:54:20.067Z,1.80
2018-12-18T16:56:48.730Z,1.80
2018-12-18T16:59:17.062Z,1.80
2018-12-18T17:01:45.488Z,1.90
2018-12-18T17:04:13.828Z,1.80
2018-12-18T17:06:42.276Z,1.80
2018-12-18T17:09:10.594Z,1.80
2018-12-18T17:11:38.773Z,1.70
2018-12-18T17:14:07.701Z,1.70
2018-12-18T17:16:39.051Z,1.70
2018-12-18T17:19:07.421Z,1.70
2018-12-18T17:21:36.407Z,1.70
2018-12-18T17:24:04.805Z,1.70
2018-12-18T17:26:33.063Z,1.70
2018-12-18T17:29:02.082Z,1.60
2018-12-18T17:31:30.743Z,1.60
2018-12-18T17:33:59.128Z,1.60
2018-12-18T17:36:27.382Z,1.60
2018-12-18T17:38:55.683Z,1.60
2018-12-18T17:41:24.099Z,1.50
2018-12-18T17:43:52.719Z,1.50
2018-12-18T17:46:20.914Z,1.60
2018-12-18T17:48:49.256Z,1.50
2018-12-18T17:51:17.561Z,1.60
2018-12-18T17:53:45.777Z,1.60
2018-12-18T17:56:14.999Z,1.50
2018-12-18T17:58:43.360Z,1.60
2018-12-18T18:01:11.619Z,1.50
2018-12-18T18:03:40.048Z,1.60
2018-12-18T18:06:08.315Z,1.60
2018-12-18T18:08:36.537Z,1.50
2018-12-18T18:11:05.101Z,1.60
2018-12-18T18:13:33.343Z,1.60
2018-12-18T18:16:01.691Z,1.70
2018-12-18T18:18:30.597Z,1.80
2018-12-18T18:20:58.937Z,1.80
2018-12-18T18:23:27.224Z,1.80
2018-12-18T18:25:55.820Z,1.80
2018-12-18T18:28:24.095Z,1.80
2018-12-18T18:30:52.474Z,1.90
2018-12-18T18:33:20.864Z,1.80
2018-12-18T18:35:49.279Z,1.70
2018-12-18T18:38:17.644Z,1.80
2018-12-18T18:40:45.939Z,1.70
2018-12-18T18:43:14.193Z,1.60
2018-12-18T18:45:42.421Z,1.60
2018-12-18T18:48:10.889Z,1.70
2018-12-18T18:50:39.128Z,1.70
2018-12-18T18:53:07.468Z,1.70
2018-12-18T18:55:35.864Z,1.80
2018-12-18T18:58:04.183Z,1.70
2018-12-18T19:00:32.514Z,1.70
2018-12-18T19:03:01.017Z,1.70
2018-12-18T19:05:29.358Z,1.70
2018-12-18T19:07:58.474Z,1.70
2018-12-18T19:10:26.800Z,1.70
2018-12-18T19:12:59.171Z,1.60
2018-12-18T19:15:27.426Z,1.60
2018-12-18T19:17:55.744Z,1.60
2018-12-18T19:20:23.996Z,1.70
2018-12-18T19:22:52.329Z,1.60
2018-12-18T19:25:20.687Z,1.70
2018-12-18T19:27:49.116Z,1.60
2018-12-18T19:30:17.439Z,1.60
2018-12-18T19:32:46.943Z,1.60
2018-12-18T19:35:15.414Z,1.60
2018-12-18T19:37:43.708Z,1.70
2018-12-18T19:40:12.062Z,1.70
2018-12-18T19:42:40.410Z,1.80
2018-12-18T19:45:08.802Z,1.70
2018-12-18T19:47:37.048Z,1.70
2018-12-18T19:50:05.675Z,1.60
2018-12-18T19:52:33.983Z,1.70
2018-12-18T19:55:02.466Z,1.70
2018-12-18T19:57:30.879Z,1.70
2018-12-18T19:59:59.299Z,1.70
2018-12-18T20:02:27.498Z,1.70
2018-12-18T20:04:55.956Z,1.70
2018-12-18T20:07:24.192Z,1.80
2018-12-18T20:09:52.535Z,1.70
2018-12-18T20:12:21.033Z,1.80
2018-12-18T20:14:49.457Z,1.70
2018-12-18T20:17:17.989Z,1.80
2018-12-18T20:19:46.420Z,1.70
2018-12-18T20:22:14.774Z,1.80
2018-12-18T20:24:43.076Z,1.80
2018-12-18T20:27:11.357Z,1.70
2018-12-18T20:29:40.061Z,1.80
2018-12-18T20:32:08.706Z,1.80
2018-12-18T20:34:37.009Z,1.80
2018-12-18T20:37:05.297Z,1.80
2018-12-18T20:39:33.587Z,1.80
2018-12-18T20:42:02.036Z,1.80
2018-12-18T20:44:30.926Z,1.80
2018-12-18T20:46:59.215Z,1.80
2018-12-18T20:49:27.439Z,1.80
2018-12-18T20:51:55.807Z,1.80
2018-12-18T20:54:24.014Z,1.80
2018-12-18T20:56:52.258Z,1.80
2018-12-18T20:59:20.367Z,1.80
2018-12-18T21:01:48.727Z,1.90
2018-12-18T21:04:17.143Z,1.90
2018-12-18T21:06:45.445Z,1.80
2018-12-18T21:09:13.751Z,1.80
2018-12-18T21:11:42.111Z,1.80
2018-12-18T21:14:11.492Z,1.90
2018-12-18T21:16:40.182Z,1.80
2018-12-18T21:19:08.816Z,1.80
2018-12-18T21:21:37.707Z,1.80
2018-12-18T21:24:07.333Z,1.80
2018-12-18T21:26:35.803Z,1.80
2018-12-18T21:29:05.119Z,1.80
2018-12-18T21:31:33.504Z,1.80
2018-12-18T21:34:01.843Z,1.80
2018-12-18T21:36:30.490Z,1.70
2018-12-18T21:38:58.807Z,1.70
2018-12-18T21:41:27.060Z,1.80
2018-12-18T21:43:55.264Z,1.80
2018-12-18T21:46:23.500Z,1.80
2018-12-18T21:48:51.866Z,1.70
2018-12-18T21:51:20.027Z,1.70
2018-12-18T21:53:48.375Z,1.60
2018-12-18T21:56:16.807Z,1.60
2018-12-18T21:58:45.251Z,1.60
2018-12-18T22:01:13.922Z,1.60
2018-12-18T22:03:42.210Z,1.60
2018-12-18T22:06:10.547Z,1.60
2018-12-18T22:08:38.671Z,1.50
2018-12-18T22:11:06.892Z,1.60
2018-12-18T22:13:35.160Z,1.60
2018-12-18T22:16:03.472Z,1.60
2018-12-18T22:18:31.923Z,1.60
2018-12-18T22:21:00.245Z,1.50
2018-12-18T22:23:28.450Z,1.50
2018-12-18T22:25:56.803Z,1.50
2018-12-18T22:28:25.107Z,1.50
2018-12-18T22:30:53.334Z,1.50
2018-12-18T22:33:23.988Z,1.50
2018-12-18T22:35:52.411Z,1.40
2018-12-18T22:38:21.541Z,1.40
2018-12-18T22:40:50.058Z,1.40
2018-12-18T22:43:18.271Z,1.40
2018-12-18T22:45:46.617Z,1.40
2018-12-18T22:48:14.995Z,1.40
2018-12-18T22:50:43.323Z,1.40
2018-12-18T22:53:11.644Z,1.30
2018-12-18T22:55:44.843Z,1.50
2018-12-18T22:58:10.542Z,1.50
2018-12-18T23:00:44.421Z,1.60
2018-12-18T23:03:12.547Z,1.50
2018-12-18T23:05:40.924Z,1.50
2018-12-18T23:08:09.230Z,1.50
2018-12-18T23:10:37.726Z,1.50
2018-12-18T23:13:05.916Z,1.50
2018-12-18T23:15:34.356Z,1.50
2018-12-18T23:18:02.711Z,1.50
2018-12-18T23:20:31.367Z,1.60
2018-12-18T23:22:59.551Z,1.70
2018-12-18T23:25:27.863Z,1.80
2018-12-18T23:27:56.217Z,1.80
2018-12-18T23:30:24.607Z,1.80
2018-12-18T23:32:52.887Z,1.90
2018-12-18T23:35:21.161Z,1.90
2018-12-18T23:37:49.502Z,2.00
2018-12-18T23:40:17.915Z,2.00
2018-12-18T23:42:46.194Z,2.30
2018-12-18T23:45:14.668Z,2.40
2018-12-18T23:47:42.851Z,2.40
2018-12-18T23:50:11.186Z,2.50
2018-12-18T23:52:39.371Z,2.60
2018-12-18T23:55:07.690Z,2.60
2018-12-18T23:57:36.476Z,2.60
